D/T METAR WX W/SPE G/SPE TEMP DEWP FEEL
31/01/23 13:20 EGOV 311320Z 26016KT 9999 FEW026 SCT031 10/04 Q1025 NOSIG RMK BLU BLU 18.4mph 10°C 4°C 9.0°C
31/01/23 12:50 EGOV 311250Z 26014KT 9999 FEW028 SCT060 09/02 Q1025 NOSIG RMK BLU BLU 16.1mph 9°C 2°C 7.4°C
31/01/23 12:20 EGOV 311220Z 27019KT 9999 FEW026 09/03 Q1025 NOSIG RMK BLU 21.9mph 9°C 3°C 7.7°C
31/01/23 04:20 EGOV 310420Z AUTO 23019KT 9999 OVC022/// 09/07 Q1021 21.9mph 9°C 7°C 9.0°C
30/01/23 12:50 EGOV 301250Z 28015KT 9999 FEW018 09/04 Q1027 NOSIG RMK BLU BLU 17.3mph 9°C 4°C 8.0°C
30/01/23 11:50 EGOV 301150Z 28013KT 9999 FEW017 08/04 Q1027 NOSIG RMK BLU BLU 15.0mph 8°C 4°C 7.0°C
30/01/23 10:50 EGOV 301050Z 28014KT 9999 FEW022 BKN220 09/05 Q1026 NOSIG RMK BLU BLU 16.1mph 9°C 5°C 8.3°C
30/01/23 10:20 EGOV 301020Z 29011KT 9999 FEW018 BKN230 08/04 Q1026 NOSIG RMK BLU BLU 12.7mph 8°C 4°C 7.0°C
30/01/23 09:50 EGOV 300950Z 29011KT 9999 FEW020 BKN170 BKN220 08/04 Q1026 NOSIG RMK BLU BLU 12.7mph 8°C 4°C 7.0°C
30/01/23 07:50 EGOV 300750Z 30011KT 9999 FEW024 BKN210 07/03 Q1025 NOSIG RMK BLU BLU 12.7mph 7°C 3°C 5.7°C
09/01/23 06:20 EGOV 090620Z AUTO 28022KT 9999 OVC019/// 07/04 Q0994 25.3mph 7°C 4°C 6.0°C
09/01/23 05:50 EGOV 090550Z AUTO 29018KT 9999 SCT022/// OVC053/// 08/04 Q0993 20.7mph 8°C 4°C 7.0°C
09/01/23 05:20 EGOV 090520Z AUTO 29020KT 9999 OVC021/// 08/04 Q0992 23.0mph 8°C 4°C 7.0°C
09/01/23 04:50 EGOV 090450Z AUTO 29019KT 9999 // OVC017/// 08/05 Q0991 21.9mph 8°C 5°C 7.3°C
09/01/23 04:20 EGOV 090420Z AUTO 28020KT 9999 // OVC013/// 07/05 Q0990 23.0mph 7°C 5°C 6.3°C
09/01/23 03:50 EGOV 090350Z AUTO 27021KT 9999 // OVC012/// 07/05 Q0990 24.2mph 7°C 5°C 6.3°C
09/01/23 03:20 EGOV 090320Z AUTO 26019KT 2300 // OVC011/// 07/05 Q0990 21.9mph 7°C 5°C 6.3°C
09/01/23 02:50 EGOV 090250Z AUTO 25019KT 9999 OVC023/// 08/04 Q0989 21.9mph 8°C 4°C 7.0°C
09/01/23 02:20 EGOV 090220Z AUTO 25017KT 9999 OVC023/// 08/04 Q0989 19.6mph 8°C 4°C 7.0°C
09/01/23 01:20 EGOV 090120Z AUTO 25017KT 9999 SCT022/// 08/04 Q0988 19.6mph 8°C 4°C 7.0°C
09/01/23 00:50 EGOV 090050Z AUTO 26019KT 9999 FEW023/// 08/04 Q0988 21.9mph 8°C 4°C 7.0°C
09/01/23 00:20 EGOV 090020Z AUTO 26015KT 9999 SCT022/// 08/04 Q0988 17.3mph 8°C 4°C 7.0°C
08/01/23 23:50 EGOV 082350Z AUTO 26018KT 9999 SCT023/// 08/04 Q0987 20.7mph 8°C 4°C 7.0°C
08/01/23 23:20 EGOV 082320Z AUTO 27017KT 9999 BKN022/// BKN039/// 08/04 Q0987 19.6mph 8°C 4°C 7.0°C
08/01/23 22:50 EGOV 082250Z AUTO 26016KT 9999 OVC021/// 08/05 Q0986 18.4mph 8°C 5°C 7.3°C
08/01/23 22:20 EGOV 082220Z AUTO 27015KT 9999 SCT019/// 08/05 Q0986 17.3mph 8°C 5°C 7.3°C
08/01/23 21:50 EGOV 082150Z AUTO 26012KT 9999 FEW021/// 08/05 Q0986 13.8mph 8°C 5°C 7.3°C
08/01/23 20:20 EGOV 082020Z AUTO 26012KT 9999 OVC023/// 08/04 Q0984 13.8mph 8°C 4°C 7.0°C
08/01/23 19:20 EGOV 081920Z AUTO 25014KT 9999 BKN022/// 08/04 Q0984 16.1mph 8°C 4°C 7.0°C
08/01/23 18:50 EGOV 081850Z AUTO 24015KT 9999 BKN022/// 08/05 Q0983 17.3mph 8°C 5°C 7.3°C
08/01/23 18:20 EGOV 081820Z AUTO 23016KT 9999 OVC022/// 08/05 Q0983 18.4mph 8°C 5°C 7.3°C
08/01/23 17:50 EGOV 081750Z AUTO 22019KT 9999 SCT019/// 09/05 Q0983 21.9mph 9°C 5°C 8.3°C
08/01/23 17:20 EGOV 081720Z AUTO 22021KT 9999 // BKN021/// 08/05 Q0982 24.2mph 8°C 5°C 7.3°C
08/01/23 16:50 EGOV 081650Z AUTO 22020KT 9999 // FEW024/// SCT180/// 08/05 Q0982 23.0mph 8°C 5°C 7.3°C
08/01/23 16:20 EGOV 081620Z AUTO 21021KT 9999 -RA OVC024/// 08/04 Q0982 -RA 24.2mph 8°C 4°C 7.0°C
08/01/23 15:50 EGOV 081550Z AUTO 21020KT 9999 OVC024/// 09/05 Q0982 23.0mph 9°C 5°C 8.3°C
08/01/23 15:20 EGOV 081520Z AUTO 22022KT 9999 BKN027/// SCT100/// 09/04 Q0983 25.3mph 9°C 4°C 8.0°C
08/01/23 14:20 EGOV 081420Z AUTO 23021KT 9999 SCT030/// 08/03 Q0983 24.2mph 8°C 3°C 6.7°C
08/01/23 13:50 EGOV 081350Z AUTO 23023KT 9999 FEW029/// 08/02 Q0983 26.5mph 8°C 2°C 6.4°C
08/01/23 13:20 EGOV 081320Z AUTO 22021KT 9999 FEW027/// 08/03 Q0983 24.2mph 8°C 3°C 6.7°C
08/01/23 12:50 EGOV 081250Z AUTO 22019KT 9999 FEW024/// 08/04 Q0983 21.9mph 8°C 4°C 7.0°C
08/01/23 12:20 EGOV 081220Z AUTO 22018KT 9999 // FEW024/// 08/04 Q0983 20.7mph 8°C 4°C 7.0°C
08/01/23 11:50 EGOV 081150Z AUTO 23019KT 9999 // FEW021/// 08/04 Q0984 21.9mph 8°C 4°C 7.0°C
08/01/23 11:20 EGOV 081120Z AUTO 22021KT 9999 RA OVC015/// 07/05 Q0984 RA 24.2mph 7°C 5°C 6.3°C
08/01/23 10:50 EGOV 081050Z AUTO 19024KT 9999 // OVC016/// 08/05 Q0984 27.6mph 8°C 5°C 7.3°C
08/01/23 10:20 EGOV 081020Z AUTO 19024KT 9999 -RA OVC017/// 07/06 Q0984 -RA 27.6mph 7°C 6°C 6.6°C
08/01/23 09:50 EGOV 080950Z AUTO 20018KT 9999 -RA OVC018/// 07/05 Q0984 -RA 20.7mph 7°C 5°C 6.3°C
08/01/23 09:20 EGOV 080920Z AUTO 16014KT 4700 RA FEW012/// OVC021/// 06/05 Q0984 RA 16.1mph 6°C 5°C 5.3°C
08/01/23 08:50 EGOV 080850Z AUTO 17017KT 9000 -RA FEW012/// BKN041/// 06/04 Q0985 -RA 19.6mph 6°C 4°C 5.0°C
08/01/23 08:20 EGOV 080820Z AUTO 21021KT 4500 +RA FEW011/// BKN028/// 06/04 Q0985 +RA 24.2mph 6°C 4°C 5.0°C
08/01/23 07:50 EGOV 080750Z AUTO 17027G42KT 3500 +RA OVC009/// 06/05 Q0985 +RA 31.1mph 48.3mph 6°C 5°C 5.3°C
08/01/23 07:20 EGOV 080720Z AUTO 19018KT 8000 // BKN058/// SCT170/// 09/06 Q0985 20.7mph 9°C 6°C 8.6°C
08/01/23 06:50 EGOV 080650Z AUTO 21023KT 9000 // SCT026/// BKN037/// BKN062/// 09/05 Q0986 26.5mph 9°C 5°C 8.3°C
08/01/23 06:20 EGOV 080620Z AUTO 21023KT 9999 // FEW029/// SCT042/// 10/05 Q0986 26.5mph 10°C 5°C 9.3°C
08/01/23 05:50 EGOV 080550Z AUTO 22018KT 9999 OVC030/// 10/05 Q0986 20.7mph 10°C 5°C 9.3°C
08/01/23 05:20 EGOV 080520Z AUTO 22019KT 9999 BR NCD 09/04 Q0987 BR 21.9mph 9°C 4°C 8.0°C
08/01/23 04:50 EGOV 080450Z AUTO 21018KT 9999 BR FEW210/// 09/04 Q0986 BR 20.7mph 9°C 4°C 8.0°C
08/01/23 04:20 EGOV 080420Z AUTO 21015KT 9000 FEW027/// SCT170/// 09/05 Q0986 17.3mph 9°C 5°C 8.3°C
08/01/23 03:50 EGOV 080350Z AUTO 22018KT 9999 BR SCT027/// 09/04 Q0987 BR 20.7mph 9°C 4°C 8.0°C
08/01/23 03:20 EGOV 080320Z AUTO 22016KT 8000 BR BKN026/// BKN066/// 10/06 Q0987 BR 18.4mph 10°C 6°C 9.6°C
08/01/23 02:50 EGOV 080250Z AUTO 22019KT 9999 BR OVC027/// 10/05 Q0987 BR 21.9mph 10°C 5°C 9.3°C
08/01/23 02:20 EGOV 080220Z AUTO 21021KT 9000 BR BKN023/// BKN150/// 10/06 Q0987 BR 24.2mph 10°C 6°C 9.6°C
08/01/23 01:50 EGOV 080150Z AUTO 22021KT 9999 BKN020/// OVC170/// 09/05 Q0987 24.2mph 9°C 5°C 8.3°C
08/01/23 01:20 EGOV 080120Z AUTO 22023KT 9999 BKN029/// OVC061/// 09/05 Q0987 26.5mph 9°C 5°C 8.3°C
08/01/23 00:20 EGOV 080020Z AUTO 22022KT 8000 // FEW020/// 10/07 Q0987 25.3mph 10°C 7°C 10.0°C
07/01/23 23:50 EGOV 072350Z AUTO 22026KT 6000 // FEW018/// SCT060/// 10/07 Q0987 29.9mph 10°C 7°C 10.0°C
07/01/23 23:20 EGOV 072320Z AUTO 21027KT 8000 BR FEW030/// SCT060/// BKN087/// 10/07 Q0986 BR 31.1mph 10°C 7°C 10.0°C
07/01/23 22:50 EGOV 072250Z AUTO 21025KT 7000 BR OVC023/// 10/07 Q0986 BR 28.8mph 10°C 7°C 10.0°C
07/01/23 22:20 EGOV 072220Z AUTO 22028KT 8000 BR SCT021/// BKN110/// 10/06 Q0986 BR 32.2mph 10°C 6°C 9.6°C
07/01/23 21:50 EGOV 072150Z AUTO 21028G38KT 7000 // OVC023/// 10/07 Q0986 32.2mph 43.7mph 10°C 7°C 10.0°C
07/01/23 21:20 EGOV 072120Z AUTO 21030KT 6000 // BKN022/// OVC042/// 10/07 Q0986 34.5mph 10°C 7°C 10.0°C
07/01/23 20:50 EGOV 072050Z AUTO 22033G44KT 9000 // OVC023/// 10/06 Q0986 38.0mph 50.6mph 10°C 6°C 9.6°C
07/01/23 20:20 EGOV 072020Z AUTO 21031G41KT 7000 BR OVC023/// 10/07 Q0986 BR 35.7mph 47.2mph 10°C 7°C 10.0°C
07/01/23 19:50 EGOV 071950Z AUTO 21033KT 8000 BR OVC023/// 10/06 Q0986 BR 38.0mph 10°C 6°C 9.6°C
07/01/23 19:20 EGOV 071920Z AUTO 20032KT 8000 // OVC024/// 10/06 Q0986 36.8mph 10°C 6°C 9.6°C
07/01/23 18:50 EGOV 071850Z AUTO 20030KT 9000 // OVC023/// 10/07 Q0985 34.5mph 10°C 7°C 10.0°C
07/01/23 18:20 EGOV 071820Z AUTO 20027KT 8000 -RA OVC027/// 09/06 Q0986 -RA 31.1mph 9°C 6°C 8.6°C
07/01/23 17:50 EGOV 071750Z AUTO 20028KT 9000 BR OVC025/// 10/06 Q0986 BR 32.2mph 10°C 6°C 9.6°C
07/01/23 17:20 EGOV 071720Z AUTO 19028KT 9999 OVC030/// 10/05 Q0986 32.2mph 10°C 5°C 9.3°C
07/01/23 16:50 EGOV 071650Z AUTO 20027KT 9999 FEW028/// 09/05 Q0986 31.1mph 9°C 5°C 8.3°C
07/01/23 16:20 EGOV 071620Z AUTO 20028KT 9999 OVC028/// 10/05 Q0987 32.2mph 10°C 5°C 9.3°C
07/01/23 15:50 EGOV 071550Z AUTO 20023KT 9999 // BKN027/// 09/06 Q0987 26.5mph 9°C 6°C 8.6°C
07/01/23 15:20 EGOV 071520Z AUTO 20026KT 9999 // FEW055/// 09/05 Q0987 29.9mph 9°C 5°C 8.3°C
07/01/23 14:50 EGOV 071450Z AUTO 21028KT 9999 -RA FEW041/// 09/05 Q0987 -RA 32.2mph 9°C 5°C 8.3°C
07/01/23 14:20 EGOV 071420Z AUTO 21025KT 9999 // SCT021/// SCT045/// 10/06 Q0987 28.8mph 10°C 6°C 9.6°C
07/01/23 13:50 EGOV 071350Z AUTO 21027KT 8000 RA OVC015/// 09/08 Q0987 RA 31.1mph 9°C 8°C 9.4°C
07/01/23 12:50 EGOV 071250Z AUTO 18024G40KT 1400 RA OVC009/// 09/08 Q0987 RA 27.6mph 46.0mph 9°C 8°C 9.4°C
07/01/23 12:20 EGOV 071220Z AUTO 18021KT 9999 // FEW026/// BKN035/// 10/07 Q0988 24.2mph 10°C 7°C 10.0°C
07/01/23 11:50 EGOV 071150Z AUTO 19023KT 9000 // OVC020/// 10/07 Q0989 26.5mph 10°C 7°C 10.0°C
07/01/23 11:20 EGOV 071120Z AUTO 19022KT 9000 // FEW024/// BKN058/// 10/08 Q0989 25.3mph 10°C 8°C 10.4°C
07/01/23 10:50 EGOV 071050Z AUTO 19022KT 9000 -RA FEW024/// SCT034/// BKN050/// 10/08 Q0989 -RA 25.3mph 10°C 8°C 10.4°C
07/01/23 10:20 EGOV 071020Z AUTO 19021KT 9999 // BKN016/// 09/08 Q0990 24.2mph 9°C 8°C 9.4°C
07/01/23 09:50 EGOV 070950Z AUTO 18017KT 6000 // FEW008/// BKN016/// 09/08 Q0990 19.6mph 9°C 8°C 9.4°C
07/01/23 09:20 EGOV 070920Z AUTO 19013KT 6000 // FEW023/// 08/08 Q0990 15.0mph 8°C 8°C 8.4°C
07/01/23 08:50 EGOV 070850Z AUTO 20011KT 8000 // FEW004/// 08/08 Q0990 12.7mph 8°C 8°C 8.4°C
07/01/23 08:20 EGOV 070820Z AUTO 22012KT 6000 +DZ BKN006/// SCT040/// 08/08 Q0990 +DZ 13.8mph 8°C 8°C 8.4°C